<?xml version="1.0" encoding="UTF-8" standalone="no" ?>
<gpx xmlns="http://www.topografix.com/GPX/1/1" xmlns:xsi="http://www.w3.org/2001/XMLSchema-instance" xsi:schemaLocation="http://www.topografix.com/GPX/1/1 http://www.topografix.com/GPX/1/1/gpx.xsd" version="1.1" creator="VisuGPX - https://www.visugpx.com">
  <metadata>
    <name>Angers St Mélaine St Mathurin</name>
    <desc><![CDATA[Région d'Angers]]></desc>
  </metadata>
  <trk>
    <name><![CDATA[Angers St Mélaine St Mathurin_1]]></name>
    <trkseg>
      <trkpt lat="47.47158" lon="-0.5412">
        <ele>40</ele>
        <time>2021-03-12T20:18:26Z</time>
      </trkpt>
      <trkpt lat="47.46928" lon="-0.54284">
        <ele>45.2</ele>
        <time>2021-03-12T20:19:06Z</time>
      </trkpt>
      <trkpt lat="47.46978" lon="-0.54418">
        <ele>46.8</ele>
        <time>2021-03-12T20:19:23Z</time>
      </trkpt>
      <trkpt lat="47.46748" lon="-0.54539">
        <ele>48.6</ele>
        <time>2021-03-12T20:20:02Z</time>
      </trkpt>
      <trkpt lat="47.46543" lon="-0.54242">
        <ele>48.4</ele>
        <time>2021-03-12T20:20:48Z</time>
      </trkpt>
      <trkpt lat="47.46436" lon="-0.54017">
        <ele>50.8</ele>
        <time>2021-03-12T20:21:18Z</time>
      </trkpt>
      <trkpt lat="47.46313" lon="-0.53665">
        <ele>46.4</ele>
        <time>2021-03-12T20:22:01Z</time>
      </trkpt>
      <trkpt lat="47.46182" lon="-0.53253">
        <ele>42.6</ele>
        <time>2021-03-12T20:22:50Z</time>
      </trkpt>
      <trkpt lat="47.46071" lon="-0.52755">
        <ele>39.4</ele>
        <time>2021-03-12T20:23:47Z</time>
      </trkpt>
      <trkpt lat="47.45956" lon="-0.52221">
        <ele>40.6</ele>
        <time>2021-03-12T20:24:48Z</time>
      </trkpt>
      <trkpt lat="47.45812" lon="-0.5148">
        <ele>39.2</ele>
        <time>2021-03-12T20:26:12Z</time>
      </trkpt>
      <trkpt lat="47.45989" lon="-0.5128">
        <ele>38.6</ele>
        <time>2021-03-12T20:26:47Z</time>
      </trkpt>
      <trkpt lat="47.46046" lon="-0.50752">
        <ele>47.4</ele>
        <time>2021-03-12T20:27:46Z</time>
      </trkpt>
      <trkpt lat="47.46013" lon="-0.50503">
        <ele>36</ele>
        <time>2021-03-12T20:28:13Z</time>
      </trkpt>
      <trkpt lat="47.4594" lon="-0.50412">
        <ele>36</ele>
        <time>2021-03-12T20:28:28Z</time>
      </trkpt>
      <trkpt lat="47.45738" lon="-0.50485">
        <ele>37.4</ele>
        <time>2021-03-12T20:29:02Z</time>
      </trkpt>
      <trkpt lat="47.45603" lon="-0.50139">
        <ele>33</ele>
        <time>2021-03-12T20:29:45Z</time>
      </trkpt>
      <trkpt lat="47.4566" lon="-0.49969">
        <ele>30.6</ele>
        <time>2021-03-12T20:30:06Z</time>
      </trkpt>
      <trkpt lat="47.4555" lon="-0.49678">
        <ele>26</ele>
        <time>2021-03-12T20:30:42Z</time>
      </trkpt>
      <trkpt lat="47.45459" lon="-0.49605">
        <ele>24.2</ele>
        <time>2021-03-12T20:30:58Z</time>
      </trkpt>
      <trkpt lat="47.45287" lon="-0.49125">
        <ele>27</ele>
        <time>2021-03-12T20:31:57Z</time>
      </trkpt>
      <trkpt lat="47.45139" lon="-0.48749">
        <ele>24</ele>
        <time>2021-03-12T20:32:45Z</time>
      </trkpt>
      <trkpt lat="47.45037" lon="-0.48597">
        <ele>28.4</ele>
        <time>2021-03-12T20:33:08Z</time>
      </trkpt>
      <trkpt lat="47.44955" lon="-0.48573">
        <ele>25.2</ele>
        <time>2021-03-12T20:33:21Z</time>
      </trkpt>
      <trkpt lat="47.44823" lon="-0.48604">
        <ele>27</ele>
        <time>2021-03-12T20:33:43Z</time>
      </trkpt>
      <trkpt lat="47.44762" lon="-0.48482">
        <ele>26</ele>
        <time>2021-03-12T20:33:59Z</time>
      </trkpt>
      <trkpt lat="47.44692" lon="-0.48294">
        <ele>29.6</ele>
        <time>2021-03-12T20:34:22Z</time>
      </trkpt>
      <trkpt lat="47.44585" lon="-0.4833">
        <ele>25.4</ele>
        <time>2021-03-12T20:34:40Z</time>
      </trkpt>
      <trkpt lat="47.44425" lon="-0.4827">
        <ele>21.6</ele>
        <time>2021-03-12T20:35:06Z</time>
      </trkpt>
      <trkpt lat="47.44335" lon="-0.4813">
        <ele>21.2</ele>
        <time>2021-03-12T20:35:27Z</time>
      </trkpt>
      <trkpt lat="47.44392" lon="-0.48033">
        <ele>25.6</ele>
        <time>2021-03-12T20:35:41Z</time>
      </trkpt>
      <trkpt lat="47.44265" lon="-0.47948">
        <ele>19.8</ele>
        <time>2021-03-12T20:36:03Z</time>
      </trkpt>
      <trkpt lat="47.4445" lon="-0.47414">
        <ele>18.8</ele>
        <time>2021-03-12T20:37:09Z</time>
      </trkpt>
      <trkpt lat="47.44556" lon="-0.47062">
        <ele>21.6</ele>
        <time>2021-03-12T20:37:50Z</time>
      </trkpt>
      <trkpt lat="47.44544" lon="-0.46485">
        <ele>22.6</ele>
        <time>2021-03-12T20:38:53Z</time>
      </trkpt>
      <trkpt lat="47.4463" lon="-0.45618">
        <ele>20.8</ele>
        <time>2021-03-12T20:40:28Z</time>
      </trkpt>
      <trkpt lat="47.44741" lon="-0.44871">
        <ele>22</ele>
        <time>2021-03-12T20:41:51Z</time>
      </trkpt>
      <trkpt lat="47.44778" lon="-0.44015">
        <ele>23.8</ele>
        <time>2021-03-12T20:43:25Z</time>
      </trkpt>
      <trkpt lat="47.4486" lon="-0.43135">
        <ele>25.2</ele>
        <time>2021-03-12T20:45:01Z</time>
      </trkpt>
      <trkpt lat="47.44946" lon="-0.42583">
        <ele>23.8</ele>
        <time>2021-03-12T20:46:02Z</time>
      </trkpt>
      <trkpt lat="47.44754" lon="-0.41873">
        <ele>24</ele>
        <time>2021-03-12T20:47:25Z</time>
      </trkpt>
      <trkpt lat="47.44573" lon="-0.41157">
        <ele>25.8</ele>
        <time>2021-03-12T20:48:48Z</time>
      </trkpt>
      <trkpt lat="47.44425" lon="-0.41035">
        <ele>20</ele>
        <time>2021-03-12T20:49:16Z</time>
      </trkpt>
      <trkpt lat="47.44339" lon="-0.40896">
        <ele>17.6</ele>
        <time>2021-03-12T20:49:36Z</time>
      </trkpt>
      <trkpt lat="47.44405" lon="-0.40689">
        <ele>17.8</ele>
        <time>2021-03-12T20:50:01Z</time>
      </trkpt>
      <trkpt lat="47.44343" lon="-0.40331">
        <ele>18.6</ele>
        <time>2021-03-12T20:50:41Z</time>
      </trkpt>
      <trkpt lat="47.44245" lon="-0.39882">
        <ele>16</ele>
        <time>2021-03-12T20:51:32Z</time>
      </trkpt>
      <trkpt lat="47.44187" lon="-0.39694">
        <ele>18.8</ele>
        <time>2021-03-12T20:51:55Z</time>
      </trkpt>
      <trkpt lat="47.44162" lon="-0.39421">
        <ele>18.4</ele>
        <time>2021-03-12T20:52:25Z</time>
      </trkpt>
      <trkpt lat="47.44134" lon="-0.39312">
        <ele>17</ele>
        <time>2021-03-12T20:52:37Z</time>
      </trkpt>
      <trkpt lat="47.44154" lon="-0.3919">
        <ele>15</ele>
        <time>2021-03-12T20:52:51Z</time>
      </trkpt>
      <trkpt lat="47.44101" lon="-0.39117">
        <ele>15.6</ele>
        <time>2021-03-12T20:53:03Z</time>
      </trkpt>
      <trkpt lat="47.44089" lon="-0.38978">
        <ele>16.2</ele>
        <time>2021-03-12T20:53:18Z</time>
      </trkpt>
      <trkpt lat="47.43912" lon="-0.3896">
        <ele>16.2</ele>
        <time>2021-03-12T20:53:46Z</time>
      </trkpt>
      <trkpt lat="47.43986" lon="-0.38523">
        <ele>15.2</ele>
        <time>2021-03-12T20:54:35Z</time>
      </trkpt>
      <trkpt lat="47.43998" lon="-0.38407">
        <ele>16</ele>
        <time>2021-03-12T20:54:48Z</time>
      </trkpt>
      <trkpt lat="47.44105" lon="-0.38177">
        <ele>16</ele>
        <time>2021-03-12T20:55:18Z</time>
      </trkpt>
      <trkpt lat="47.44015" lon="-0.37849">
        <ele>16</ele>
        <time>2021-03-12T20:55:57Z</time>
      </trkpt>
      <trkpt lat="47.44027" lon="-0.37533">
        <ele>17</ele>
        <time>2021-03-12T20:56:31Z</time>
      </trkpt>
      <trkpt lat="47.43982" lon="-0.37321">
        <ele>16</ele>
        <time>2021-03-12T20:56:55Z</time>
      </trkpt>
      <trkpt lat="47.44048" lon="-0.36866">
        <ele>18.2</ele>
        <time>2021-03-12T20:57:46Z</time>
      </trkpt>
      <trkpt lat="47.44006" lon="-0.36714">
        <ele>15.8</ele>
        <time>2021-03-12T20:58:03Z</time>
      </trkpt>
      <trkpt lat="47.4383" lon="-0.36362">
        <ele>16.8</ele>
        <time>2021-03-12T20:58:51Z</time>
      </trkpt>
      <trkpt lat="47.43896" lon="-0.36216">
        <ele>16.2</ele>
        <time>2021-03-12T20:59:10Z</time>
      </trkpt>
      <trkpt lat="47.43801" lon="-0.35992">
        <ele>15.2</ele>
        <time>2021-03-12T20:59:39Z</time>
      </trkpt>
      <trkpt lat="47.43711" lon="-0.35846">
        <ele>16.4</ele>
        <time>2021-03-12T21:00:00Z</time>
      </trkpt>
      <trkpt lat="47.43633" lon="-0.35494">
        <ele>17.8</ele>
        <time>2021-03-12T21:00:40Z</time>
      </trkpt>
      <trkpt lat="47.43658" lon="-0.3513">
        <ele>17</ele>
        <time>2021-03-12T21:01:20Z</time>
      </trkpt>
      <trkpt lat="47.43575" lon="-0.34396">
        <ele>18.6</ele>
        <time>2021-03-12T21:02:41Z</time>
      </trkpt>
      <trkpt lat="47.43616" lon="-0.3425">
        <ele>18.2</ele>
        <time>2021-03-12T21:02:58Z</time>
      </trkpt>
      <trkpt lat="47.43658" lon="-0.33261">
        <ele>21.4</ele>
        <time>2021-03-12T21:04:46Z</time>
      </trkpt>
      <trkpt lat="47.43658" lon="-0.32836">
        <ele>18</ele>
        <time>2021-03-12T21:05:32Z</time>
      </trkpt>
      <trkpt lat="47.4358" lon="-0.32526">
        <ele>18</ele>
        <time>2021-03-12T21:06:08Z</time>
      </trkpt>
      <trkpt lat="47.4282" lon="-0.32757">
        <ele>17.8</ele>
        <time>2021-03-12T21:08:12Z</time>
      </trkpt>
      <trkpt lat="47.4243" lon="-0.33012">
        <ele>17.4</ele>
        <time>2021-03-12T21:09:20Z</time>
      </trkpt>
      <trkpt lat="47.42028" lon="-0.33206">
        <ele>21</ele>
        <time>2021-03-12T21:10:28Z</time>
      </trkpt>
      <trkpt lat="47.4163" lon="-0.33281">
        <ele>20.8</ele>
        <time>2021-03-12T21:11:32Z</time>
      </trkpt>
      <trkpt lat="47.41125" lon="-0.33359">
        <ele>20.6</ele>
        <time>2021-03-12T21:12:54Z</time>
      </trkpt>
      <trkpt lat="47.41009" lon="-0.32547">
        <ele>24.4</ele>
        <time>2021-03-12T21:14:24Z</time>
      </trkpt>
      <trkpt lat="47.4099" lon="-0.32269">
        <ele>24.8</ele>
        <time>2021-03-12T21:14:54Z</time>
      </trkpt>
      <trkpt lat="47.40866" lon="-0.31818">
        <ele>23.6</ele>
        <time>2021-03-12T21:15:47Z</time>
      </trkpt>
      <trkpt lat="47.40506" lon="-0.3191">
        <ele>13</ele>
        <time>2021-03-12T21:16:45Z</time>
      </trkpt>
      <trkpt lat="47.39934" lon="-0.32038">
        <ele>27.6</ele>
        <time>2021-03-12T21:18:18Z</time>
      </trkpt>
      <trkpt lat="47.39905" lon="-0.31785">
        <ele>27</ele>
        <time>2021-03-12T21:18:46Z</time>
      </trkpt>
      <trkpt lat="47.39771" lon="-0.31729">
        <ele>27.8</ele>
        <time>2021-03-12T21:19:08Z</time>
      </trkpt>
      <trkpt lat="47.39748" lon="-0.31498">
        <ele>29.2</ele>
        <time>2021-03-12T21:19:34Z</time>
      </trkpt>
      <trkpt lat="47.3978" lon="-0.30953">
        <ele>27.2</ele>
        <time>2021-03-12T21:20:33Z</time>
      </trkpt>
      <trkpt lat="47.39695" lon="-0.30266">
        <ele>31.8</ele>
        <time>2021-03-12T21:21:49Z</time>
      </trkpt>
      <trkpt lat="47.39626" lon="-0.29828">
        <ele>28</ele>
        <time>2021-03-12T21:22:38Z</time>
      </trkpt>
      <trkpt lat="47.39521" lon="-0.29554">
        <ele>37.2</ele>
        <time>2021-03-12T21:23:12Z</time>
      </trkpt>
      <trkpt lat="47.39524" lon="-0.29369">
        <ele>33.6</ele>
        <time>2021-03-12T21:23:32Z</time>
      </trkpt>
      <trkpt lat="47.39344" lon="-0.28833">
        <ele>27.4</ele>
        <time>2021-03-12T21:24:37Z</time>
      </trkpt>
      <trkpt lat="47.39236" lon="-0.28442">
        <ele>26.2</ele>
        <time>2021-03-12T21:25:23Z</time>
      </trkpt>
      <trkpt lat="47.39135" lon="-0.28193">
        <ele>26.4</ele>
        <time>2021-03-12T21:25:55Z</time>
      </trkpt>
      <trkpt lat="47.39078" lon="-0.2832">
        <ele>32.8</ele>
        <time>2021-03-12T21:26:11Z</time>
      </trkpt>
      <trkpt lat="47.39091" lon="-0.28442">
        <ele>38.8</ele>
        <time>2021-03-12T21:26:25Z</time>
      </trkpt>
      <trkpt lat="47.38856" lon="-0.28594">
        <ele>55.2</ele>
        <time>2021-03-12T21:27:06Z</time>
      </trkpt>
      <trkpt lat="47.38614" lon="-0.28842">
        <ele>78.2</ele>
        <time>2021-03-12T21:27:53Z</time>
      </trkpt>
      <trkpt lat="47.38458" lon="-0.292">
        <ele>77.6</ele>
        <time>2021-03-12T21:28:39Z</time>
      </trkpt>
      <trkpt lat="47.3833" lon="-0.29395">
        <ele>75.4</ele>
        <time>2021-03-12T21:29:09Z</time>
      </trkpt>
      <trkpt lat="47.38014" lon="-0.29577">
        <ele>76.4</ele>
        <time>2021-03-12T21:30:03Z</time>
      </trkpt>
      <trkpt lat="47.3808" lon="-0.29862">
        <ele>74.6</ele>
        <time>2021-03-12T21:30:36Z</time>
      </trkpt>
      <trkpt lat="47.38137" lon="-0.30305">
        <ele>64.8</ele>
        <time>2021-03-12T21:31:25Z</time>
      </trkpt>
      <trkpt lat="47.38125" lon="-0.30481">
        <ele>65.4</ele>
        <time>2021-03-12T21:31:44Z</time>
      </trkpt>
      <trkpt lat="47.38355" lon="-0.30845">
        <ele>60.4</ele>
        <time>2021-03-12T21:32:38Z</time>
      </trkpt>
      <trkpt lat="47.38495" lon="-0.31252">
        <ele>46.8</ele>
        <time>2021-03-12T21:33:28Z</time>
      </trkpt>
      <trkpt lat="47.38511" lon="-0.31489">
        <ele>39.2</ele>
        <time>2021-03-12T21:33:54Z</time>
      </trkpt>
      <trkpt lat="47.3856" lon="-0.31768">
        <ele>29.8</ele>
        <time>2021-03-12T21:34:25Z</time>
      </trkpt>
      <trkpt lat="47.3856" lon="-0.32077">
        <ele>38.6</ele>
        <time>2021-03-12T21:34:58Z</time>
      </trkpt>
      <trkpt lat="47.38347" lon="-0.32041">
        <ele>31.2</ele>
        <time>2021-03-12T21:35:33Z</time>
      </trkpt>
      <trkpt lat="47.38199" lon="-0.3218">
        <ele>33.2</ele>
        <time>2021-03-12T21:36:01Z</time>
      </trkpt>
      <trkpt lat="47.37961" lon="-0.32375">
        <ele>28.6</ele>
        <time>2021-03-12T21:36:45Z</time>
      </trkpt>
      <trkpt lat="47.37784" lon="-0.32514">
        <ele>27</ele>
        <time>2021-03-12T21:37:17Z</time>
      </trkpt>
      <trkpt lat="47.37771" lon="-0.32757">
        <ele>30</ele>
        <time>2021-03-12T21:37:43Z</time>
      </trkpt>
      <trkpt lat="47.37554" lon="-0.32806">
        <ele>28.2</ele>
        <time>2021-03-12T21:38:18Z</time>
      </trkpt>
      <trkpt lat="47.37722" lon="-0.33953">
        <ele>43.6</ele>
        <time>2021-03-12T21:40:26Z</time>
      </trkpt>
      <trkpt lat="47.3787" lon="-0.34007">
        <ele>35.4</ele>
        <time>2021-03-12T21:40:50Z</time>
      </trkpt>
      <trkpt lat="47.38002" lon="-0.33947">
        <ele>36.2</ele>
        <time>2021-03-12T21:41:12Z</time>
      </trkpt>
      <trkpt lat="47.3803" lon="-0.3439">
        <ele>45</ele>
        <time>2021-03-12T21:42:01Z</time>
      </trkpt>
      <trkpt lat="47.38174" lon="-0.34681">
        <ele>44.8</ele>
        <time>2021-03-12T21:42:40Z</time>
      </trkpt>
      <trkpt lat="47.38256" lon="-0.35033">
        <ele>54</ele>
        <time>2021-03-12T21:43:20Z</time>
      </trkpt>
      <trkpt lat="47.38417" lon="-0.35027">
        <ele>63.2</ele>
        <time>2021-03-12T21:43:46Z</time>
      </trkpt>
      <trkpt lat="47.38474" lon="-0.34963">
        <ele>63.8</ele>
        <time>2021-03-12T21:43:58Z</time>
      </trkpt>
      <trkpt lat="47.3861" lon="-0.35027">
        <ele>67.2</ele>
        <time>2021-03-12T21:44:21Z</time>
      </trkpt>
      <trkpt lat="47.38684" lon="-0.35306">
        <ele>71</ele>
        <time>2021-03-12T21:44:53Z</time>
      </trkpt>
      <trkpt lat="47.38832" lon="-0.35731">
        <ele>70.2</ele>
        <time>2021-03-12T21:45:45Z</time>
      </trkpt>
      <trkpt lat="47.38959" lon="-0.36053">
        <ele>70</ele>
        <time>2021-03-12T21:46:25Z</time>
      </trkpt>
      <trkpt lat="47.39041" lon="-0.36374">
        <ele>72.2</ele>
        <time>2021-03-12T21:47:03Z</time>
      </trkpt>
      <trkpt lat="47.39354" lon="-0.36447">
        <ele>67.2</ele>
        <time>2021-03-12T21:47:54Z</time>
      </trkpt>
      <trkpt lat="47.396" lon="-0.36659">
        <ele>68.2</ele>
        <time>2021-03-12T21:48:39Z</time>
      </trkpt>
      <trkpt lat="47.39789" lon="-0.36757">
        <ele>58.8</ele>
        <time>2021-03-12T21:49:11Z</time>
      </trkpt>
      <trkpt lat="47.40011" lon="-0.36993">
        <ele>35.4</ele>
        <time>2021-03-12T21:49:55Z</time>
      </trkpt>
      <trkpt lat="47.40007" lon="-0.37109">
        <ele>35.6</ele>
        <time>2021-03-12T21:50:08Z</time>
      </trkpt>
      <trkpt lat="47.39999" lon="-0.3726">
        <ele>30</ele>
        <time>2021-03-12T21:50:24Z</time>
      </trkpt>
      <trkpt lat="47.39875" lon="-0.37533">
        <ele>26.8</ele>
        <time>2021-03-12T21:51:00Z</time>
      </trkpt>
      <trkpt lat="47.39892" lon="-0.37715">
        <ele>30.6</ele>
        <time>2021-03-12T21:51:20Z</time>
      </trkpt>
      <trkpt lat="47.39851" lon="-0.37819">
        <ele>37</ele>
        <time>2021-03-12T21:51:33Z</time>
      </trkpt>
      <trkpt lat="47.39896" lon="-0.38165">
        <ele>36.2</ele>
        <time>2021-03-12T21:52:11Z</time>
      </trkpt>
      <trkpt lat="47.39793" lon="-0.3831">
        <ele>48.8</ele>
        <time>2021-03-12T21:52:34Z</time>
      </trkpt>
      <trkpt lat="47.39777" lon="-0.3848">
        <ele>48</ele>
        <time>2021-03-12T21:52:53Z</time>
      </trkpt>
      <trkpt lat="47.39723" lon="-0.38826">
        <ele>26.2</ele>
        <time>2021-03-12T21:53:31Z</time>
      </trkpt>
      <trkpt lat="47.39625" lon="-0.38972">
        <ele>40</ele>
        <time>2021-03-12T21:53:54Z</time>
      </trkpt>
      <trkpt lat="47.39522" lon="-0.3916">
        <ele>53.2</ele>
        <time>2021-03-12T21:54:20Z</time>
      </trkpt>
      <trkpt lat="47.39489" lon="-0.39439">
        <ele>65.4</ele>
        <time>2021-03-12T21:54:51Z</time>
      </trkpt>
      <trkpt lat="47.39543" lon="-0.39603">
        <ele>72.2</ele>
        <time>2021-03-12T21:55:10Z</time>
      </trkpt>
      <trkpt lat="47.3953" lon="-0.39712">
        <ele>80.4</ele>
        <time>2021-03-12T21:55:22Z</time>
      </trkpt>
      <trkpt lat="47.39366" lon="-0.39761">
        <ele>77</ele>
        <time>2021-03-12T21:55:49Z</time>
      </trkpt>
      <trkpt lat="47.39345" lon="-0.40028">
        <ele>76</ele>
        <time>2021-03-12T21:56:18Z</time>
      </trkpt>
      <trkpt lat="47.39292" lon="-0.40526">
        <ele>73.2</ele>
        <time>2021-03-12T21:57:13Z</time>
      </trkpt>
      <trkpt lat="47.39193" lon="-0.40556">
        <ele>77.8</ele>
        <time>2021-03-12T21:57:29Z</time>
      </trkpt>
      <trkpt lat="47.39284" lon="-0.40768">
        <ele>74.6</ele>
        <time>2021-03-12T21:57:57Z</time>
      </trkpt>
      <trkpt lat="47.39304" lon="-0.41041">
        <ele>83</ele>
        <time>2021-03-12T21:58:27Z</time>
      </trkpt>
      <trkpt lat="47.39214" lon="-0.41054">
        <ele>83</ele>
        <time>2021-03-12T21:58:41Z</time>
      </trkpt>
      <trkpt lat="47.39156" lon="-0.41733">
        <ele>75.4</ele>
        <time>2021-03-12T21:59:55Z</time>
      </trkpt>
      <trkpt lat="47.39136" lon="-0.41976">
        <ele>70.8</ele>
        <time>2021-03-12T22:00:22Z</time>
      </trkpt>
      <trkpt lat="47.3916" lon="-0.42322">
        <ele>72.6</ele>
        <time>2021-03-12T22:01:00Z</time>
      </trkpt>
      <trkpt lat="47.39382" lon="-0.42237">
        <ele>61.6</ele>
        <time>2021-03-12T22:01:37Z</time>
      </trkpt>
      <trkpt lat="47.39386" lon="-0.42456">
        <ele>72.4</ele>
        <time>2021-03-12T22:02:00Z</time>
      </trkpt>
      <trkpt lat="47.3944" lon="-0.42668">
        <ele>77.8</ele>
        <time>2021-03-12T22:02:25Z</time>
      </trkpt>
      <trkpt lat="47.3944" lon="-0.42959">
        <ele>79.6</ele>
        <time>2021-03-12T22:02:57Z</time>
      </trkpt>
      <trkpt lat="47.39456" lon="-0.43354">
        <ele>82.6</ele>
        <time>2021-03-12T22:03:40Z</time>
      </trkpt>
      <trkpt lat="47.3951" lon="-0.43669">
        <ele>80</ele>
        <time>2021-03-12T22:04:15Z</time>
      </trkpt>
      <trkpt lat="47.39381" lon="-0.43674">
        <ele>79.2</ele>
        <time>2021-03-12T22:04:36Z</time>
      </trkpt>
      <trkpt lat="47.39394" lon="-0.43828">
        <ele>70.4</ele>
        <time>2021-03-12T22:04:53Z</time>
      </trkpt>
      <trkpt lat="47.39495" lon="-0.44169">
        <ele>49.4</ele>
        <time>2021-03-12T22:05:33Z</time>
      </trkpt>
      <trkpt lat="47.39643" lon="-0.44557">
        <ele>32.8</ele>
        <time>2021-03-12T22:06:21Z</time>
      </trkpt>
      <trkpt lat="47.39571" lon="-0.44685">
        <ele>31</ele>
        <time>2021-03-12T22:06:39Z</time>
      </trkpt>
      <trkpt lat="47.39464" lon="-0.44772">
        <ele>32.6</ele>
        <time>2021-03-12T22:06:59Z</time>
      </trkpt>
      <trkpt lat="47.39374" lon="-0.44925">
        <ele>29.6</ele>
        <time>2021-03-12T22:07:21Z</time>
      </trkpt>
      <trkpt lat="47.3935" lon="-0.45068">
        <ele>29.2</ele>
        <time>2021-03-12T22:07:37Z</time>
      </trkpt>
      <trkpt lat="47.39322" lon="-0.45353">
        <ele>30</ele>
        <time>2021-03-12T22:08:08Z</time>
      </trkpt>
      <trkpt lat="47.39142" lon="-0.45553">
        <ele>33.8</ele>
        <time>2021-03-12T22:08:44Z</time>
      </trkpt>
      <trkpt lat="47.38831" lon="-0.45833">
        <ele>48</ele>
        <time>2021-03-12T22:09:43Z</time>
      </trkpt>
      <trkpt lat="47.38468" lon="-0.45986">
        <ele>53.4</ele>
        <time>2021-03-12T22:10:43Z</time>
      </trkpt>
      <trkpt lat="47.38513" lon="-0.4615">
        <ele>49</ele>
        <time>2021-03-12T22:11:02Z</time>
      </trkpt>
      <trkpt lat="47.38493" lon="-0.46236">
        <ele>49.2</ele>
        <time>2021-03-12T22:11:12Z</time>
      </trkpt>
      <trkpt lat="47.38531" lon="-0.46364">
        <ele>48.8</ele>
        <time>2021-03-12T22:11:28Z</time>
      </trkpt>
      <trkpt lat="47.38365" lon="-0.46512">
        <ele>47.2</ele>
        <time>2021-03-12T22:11:59Z</time>
      </trkpt>
      <trkpt lat="47.38113" lon="-0.46793">
        <ele>45.8</ele>
        <time>2021-03-12T22:12:49Z</time>
      </trkpt>
      <trkpt lat="47.37985" lon="-0.46956">
        <ele>48</ele>
        <time>2021-03-12T22:13:16Z</time>
      </trkpt>
      <trkpt lat="47.3796" lon="-0.47078">
        <ele>47.2</ele>
        <time>2021-03-12T22:13:30Z</time>
      </trkpt>
      <trkpt lat="47.37916" lon="-0.47155">
        <ele>49</ele>
        <time>2021-03-12T22:13:41Z</time>
      </trkpt>
      <trkpt lat="47.37867" lon="-0.47349">
        <ele>51.4</ele>
        <time>2021-03-12T22:14:04Z</time>
      </trkpt>
      <trkpt lat="47.37836" lon="-0.47711">
        <ele>64</ele>
        <time>2021-03-12T22:14:43Z</time>
      </trkpt>
      <trkpt lat="47.37805" lon="-0.47752">
        <ele>64.8</ele>
        <time>2021-03-12T22:14:50Z</time>
      </trkpt>
      <trkpt lat="47.37805" lon="-0.48038">
        <ele>55.8</ele>
        <time>2021-03-12T22:15:21Z</time>
      </trkpt>
      <trkpt lat="47.37808" lon="-0.48206">
        <ele>51.4</ele>
        <time>2021-03-12T22:15:39Z</time>
      </trkpt>
      <trkpt lat="47.37884" lon="-0.4861">
        <ele>45</ele>
        <time>2021-03-12T22:16:25Z</time>
      </trkpt>
      <trkpt lat="47.37643" lon="-0.48829">
        <ele>36.2</ele>
        <time>2021-03-12T22:17:10Z</time>
      </trkpt>
      <trkpt lat="47.37442" lon="-0.48941">
        <ele>27.2</ele>
        <time>2021-03-12T22:17:45Z</time>
      </trkpt>
      <trkpt lat="47.37249" lon="-0.49094">
        <ele>33.4</ele>
        <time>2021-03-12T22:18:20Z</time>
      </trkpt>
      <trkpt lat="47.36975" lon="-0.49329">
        <ele>38</ele>
        <time>2021-03-12T22:19:10Z</time>
      </trkpt>
      <trkpt lat="47.37045" lon="-0.49646">
        <ele>40.2</ele>
        <time>2021-03-12T22:19:47Z</time>
      </trkpt>
      <trkpt lat="47.37107" lon="-0.50023">
        <ele>37</ele>
        <time>2021-03-12T22:20:29Z</time>
      </trkpt>
      <trkpt lat="47.37173" lon="-0.50651">
        <ele>33.4</ele>
        <time>2021-03-12T22:21:38Z</time>
      </trkpt>
      <trkpt lat="47.37262" lon="-0.50789">
        <ele>28.6</ele>
        <time>2021-03-12T22:21:59Z</time>
      </trkpt>
      <trkpt lat="47.37283" lon="-0.511">
        <ele>38</ele>
        <time>2021-03-12T22:22:33Z</time>
      </trkpt>
      <trkpt lat="47.37228" lon="-0.51299">
        <ele>40</ele>
        <time>2021-03-12T22:22:56Z</time>
      </trkpt>
      <trkpt lat="47.36934" lon="-0.51677">
        <ele>43.4</ele>
        <time>2021-03-12T22:23:59Z</time>
      </trkpt>
      <trkpt lat="47.37165" lon="-0.51823">
        <ele>34.6</ele>
        <time>2021-03-12T22:24:39Z</time>
      </trkpt>
      <trkpt lat="47.37519" lon="-0.51873">
        <ele>22.4</ele>
        <time>2021-03-12T22:25:36Z</time>
      </trkpt>
      <trkpt lat="47.37467" lon="-0.51943">
        <ele>25</ele>
        <time>2021-03-12T22:25:47Z</time>
      </trkpt>
      <trkpt lat="47.37416" lon="-0.52165">
        <ele>33.6</ele>
        <time>2021-03-12T22:26:13Z</time>
      </trkpt>
      <trkpt lat="47.37494" lon="-0.52216">
        <ele>33.2</ele>
        <time>2021-03-12T22:26:26Z</time>
      </trkpt>
      <trkpt lat="47.3765" lon="-0.52259">
        <ele>42.6</ele>
        <time>2021-03-12T22:26:52Z</time>
      </trkpt>
      <trkpt lat="47.37778" lon="-0.52256">
        <ele>44.2</ele>
        <time>2021-03-12T22:27:12Z</time>
      </trkpt>
      <trkpt lat="47.37833" lon="-0.52335">
        <ele>43</ele>
        <time>2021-03-12T22:27:24Z</time>
      </trkpt>
      <trkpt lat="47.37905" lon="-0.52392">
        <ele>39.4</ele>
        <time>2021-03-12T22:27:37Z</time>
      </trkpt>
      <trkpt lat="47.38121" lon="-0.52538">
        <ele>22.6</ele>
        <time>2021-03-12T22:28:16Z</time>
      </trkpt>
      <trkpt lat="47.383" lon="-0.5272">
        <ele>37.2</ele>
        <time>2021-03-12T22:28:50Z</time>
      </trkpt>
      <trkpt lat="47.38435" lon="-0.52532">
        <ele>54.8</ele>
        <time>2021-03-12T22:29:20Z</time>
      </trkpt>
      <trkpt lat="47.38649" lon="-0.52535">
        <ele>51.6</ele>
        <time>2021-03-12T22:29:54Z</time>
      </trkpt>
      <trkpt lat="47.38838" lon="-0.52592">
        <ele>57.6</ele>
        <time>2021-03-12T22:30:25Z</time>
      </trkpt>
      <trkpt lat="47.38954" lon="-0.52585">
        <ele>57</ele>
        <time>2021-03-12T22:30:44Z</time>
      </trkpt>
      <trkpt lat="47.39299" lon="-0.52567">
        <ele>41.2</ele>
        <time>2021-03-12T22:31:39Z</time>
      </trkpt>
      <trkpt lat="47.39389" lon="-0.52546">
        <ele>40.4</ele>
        <time>2021-03-12T22:31:54Z</time>
      </trkpt>
      <trkpt lat="47.39538" lon="-0.52401">
        <ele>39.2</ele>
        <time>2021-03-12T22:32:22Z</time>
      </trkpt>
      <trkpt lat="47.39709" lon="-0.52401">
        <ele>37</ele>
        <time>2021-03-12T22:32:50Z</time>
      </trkpt>
      <trkpt lat="47.39887" lon="-0.52372">
        <ele>31</ele>
        <time>2021-03-12T22:33:18Z</time>
      </trkpt>
      <trkpt lat="47.40014" lon="-0.52455">
        <ele>32</ele>
        <time>2021-03-12T22:33:41Z</time>
      </trkpt>
      <trkpt lat="47.40173" lon="-0.52517">
        <ele>32.6</ele>
        <time>2021-03-12T22:34:07Z</time>
      </trkpt>
      <trkpt lat="47.40383" lon="-0.52506">
        <ele>34</ele>
        <time>2021-03-12T22:34:41Z</time>
      </trkpt>
      <trkpt lat="47.40455" lon="-0.52604">
        <ele>32.8</ele>
        <time>2021-03-12T22:34:56Z</time>
      </trkpt>
      <trkpt lat="47.40536" lon="-0.52589">
        <ele>30.8</ele>
        <time>2021-03-12T22:35:09Z</time>
      </trkpt>
      <trkpt lat="47.40643" lon="-0.52589">
        <ele>17.6</ele>
        <time>2021-03-12T22:35:26Z</time>
      </trkpt>
      <trkpt lat="47.41199" lon="-0.52375">
        <ele>21</ele>
        <time>2021-03-12T22:36:58Z</time>
      </trkpt>
      <trkpt lat="47.41486" lon="-0.52321">
        <ele>24</ele>
        <time>2021-03-12T22:37:45Z</time>
      </trkpt>
      <trkpt lat="47.41842" lon="-0.52344">
        <ele>23</ele>
        <time>2021-03-12T22:38:42Z</time>
      </trkpt>
      <trkpt lat="47.42265" lon="-0.52372">
        <ele>21</ele>
        <time>2021-03-12T22:39:50Z</time>
      </trkpt>
      <trkpt lat="47.42601" lon="-0.52599">
        <ele>22.4</ele>
        <time>2021-03-12T22:40:49Z</time>
      </trkpt>
      <trkpt lat="47.42895" lon="-0.52783">
        <ele>21.6</ele>
        <time>2021-03-12T22:41:40Z</time>
      </trkpt>
      <trkpt lat="47.432" lon="-0.52867">
        <ele>22.2</ele>
        <time>2021-03-12T22:42:30Z</time>
      </trkpt>
      <trkpt lat="47.43744" lon="-0.53155">
        <ele>20.4</ele>
        <time>2021-03-12T22:44:02Z</time>
      </trkpt>
      <trkpt lat="47.44124" lon="-0.53436">
        <ele>26.6</ele>
        <time>2021-03-12T22:45:10Z</time>
      </trkpt>
      <trkpt lat="47.44298" lon="-0.53526">
        <ele>30.8</ele>
        <time>2021-03-12T22:45:40Z</time>
      </trkpt>
      <trkpt lat="47.44472" lon="-0.53505">
        <ele>34</ele>
        <time>2021-03-12T22:46:08Z</time>
      </trkpt>
      <trkpt lat="47.44606" lon="-0.53621">
        <ele>34.8</ele>
        <time>2021-03-12T22:46:33Z</time>
      </trkpt>
      <trkpt lat="47.4487" lon="-0.53672">
        <ele>35</ele>
        <time>2021-03-12T22:47:15Z</time>
      </trkpt>
      <trkpt lat="47.45151" lon="-0.53758">
        <ele>37.8</ele>
        <time>2021-03-12T22:48:01Z</time>
      </trkpt>
      <trkpt lat="47.45305" lon="-0.53869">
        <ele>36</ele>
        <time>2021-03-12T22:48:29Z</time>
      </trkpt>
      <trkpt lat="47.45412" lon="-0.54015">
        <ele>41</ele>
        <time>2021-03-12T22:48:52Z</time>
      </trkpt>
      <trkpt lat="47.4561" lon="-0.5411">
        <ele>42</ele>
        <time>2021-03-12T22:49:25Z</time>
      </trkpt>
      <trkpt lat="47.45784" lon="-0.54376">
        <ele>40.2</ele>
        <time>2021-03-12T22:50:05Z</time>
      </trkpt>
      <trkpt lat="47.45798" lon="-0.54487">
        <ele>37.2</ele>
        <time>2021-03-12T22:50:18Z</time>
      </trkpt>
      <trkpt lat="47.4648" lon="-0.54861">
        <ele>46</ele>
        <time>2021-03-12T22:52:14Z</time>
      </trkpt>
      <trkpt lat="47.46953" lon="-0.54543">
        <ele>43</ele>
        <time>2021-03-12T22:53:37Z</time>
      </trkpt>
      <trkpt lat="47.4706" lon="-0.54453">
        <ele>43.2</ele>
        <time>2021-03-12T22:53:57Z</time>
      </trkpt>
      <trkpt lat="47.47144" lon="-0.54359">
        <ele>43.6</ele>
        <time>2021-03-12T22:54:14Z</time>
      </trkpt>
      <trkpt lat="47.47191" lon="-0.54191">
        <ele>40</ele>
        <time>2021-03-12T22:54:34Z</time>
      </trkpt>
    </trkseg>
  </trk>
</gpx>